sensor_id;sensor_type;location;lat;lon;timestamp;pressure;altitude;pressure_sealevel;temperature;humidity
9822;BME280;4950;46.042;14.472;2023-05-24T00:00:43;97762.88;;;18.04;91.89
9822;BME280;4950;46.042;14.472;2023-05-24T00:03:11;97769.75;;;18.05;91.71
9822;BME280;4950;46.042;14.472;2023-05-24T00:05:39;97777.75;;;17.80;91.84
9822;BME280;4950;46.042;14.472;2023-05-24T00:08:06;97779.09;;;17.71;92.00
9822;BME280;4950;46.042;14.472;2023-05-24T00:10:34;97773.00;;;17.59;92.68
9822;BME280;4950;46.042;14.472;2023-05-24T00:13:00;97773.78;;;17.59;92.88
9822;BME280;4950;46.042;14.472;2023-05-24T00:15:27;97777.13;;;17.66;92.55
9822;BME280;4950;46.042;14.472;2023-05-24T00:17:53;97781.50;;;17.72;92.32
9822;BME280;4950;46.042;14.472;2023-05-24T00:20:20;97777.84;;;17.73;91.97
9822;BME280;4950;46.042;14.472;2023-05-24T00:22:47;97774.19;;;17.74;92.35
9822;BME280;4950;46.042;14.472;2023-05-24T00:25:13;97774.13;;;17.81;91.71
9822;BME280;4950;46.042;14.472;2023-05-24T00:27:41;97775.31;;;17.85;91.71
9822;BME280;4950;46.042;14.472;2023-05-24T00:30:08;97769.44;;;17.83;91.46
9822;BME280;4950;46.042;14.472;2023-05-24T00:32:35;97763.97;;;17.85;91.53
9822;BME280;4950;46.042;14.472;2023-05-24T00:35:01;97766.75;;;17.90;91.71
9822;BME280;4950;46.042;14.472;2023-05-24T00:37:28;97767.19;;;17.87;91.67
9822;BME280;4950;46.042;14.472;2023-05-24T00:39:54;97769.66;;;17.82;91.79
9822;BME280;4950;46.042;14.472;2023-05-24T00:42:21;97782.44;;;17.78;92.22
9822;BME280;4950;46.042;14.472;2023-05-24T00:44:49;97777.19;;;17.78;91.92
9822;BME280;4950;46.042;14.472;2023-05-24T00:47:16;97785.41;;;17.82;91.85
9822;BME280;4950;46.042;14.472;2023-05-24T00:49:43;97779.59;;;17.80;91.73
9822;BME280;4950;46.042;14.472;2023-05-24T00:52:10;97783.22;;;17.79;91.85
9822;BME280;4950;46.042;14.472;2023-05-24T00:54:36;97783.09;;;17.73;91.98
9822;BME280;4950;46.042;14.472;2023-05-24T00:57:05;97783.31;;;17.72;92.08
9822;BME280;4950;46.042;14.472;2023-05-24T00:59:31;97784.34;;;17.71;92.15
9822;BME280;4950;46.042;14.472;2023-05-24T01:01:59;97787.19;;;17.69;92.06
9822;BME280;4950;46.042;14.472;2023-05-24T01:04:26;97786.38;;;17.69;92.29
9822;BME280;4950;46.042;14.472;2023-05-24T01:07:03;97787.84;;;17.65;92.27
9822;BME280;4950;46.042;14.472;2023-05-24T01:09:33;97790.69;;;17.63;92.55
9822;BME280;4950;46.042;14.472;2023-05-24T01:12:10;97790.34;;;17.60;92.53
9822;BME280;4950;46.042;14.472;2023-05-24T01:14:44;97792.53;;;17.63;92.23
9822;BME280;4950;46.042;14.472;2023-05-24T01:17:20;97792.88;;;17.66;92.20
9822;BME280;4950;46.042;14.472;2023-05-24T01:19:53;97787.28;;;17.63;91.87
9822;BME280;4950;46.042;14.472;2023-05-24T01:22:29;97793.19;;;17.58;92.17
9822;BME280;4950;46.042;14.472;2023-05-24T01:25:03;97802.53;;;17.54;92.35
9822;BME280;4950;46.042;14.472;2023-05-24T01:27:33;97797.03;;;17.55;92.40
9822;BME280;4950;46.042;14.472;2023-05-24T01:30:02;97802.16;;;17.50;92.77
9822;BME280;4950;46.042;14.472;2023-05-24T01:32:29;97797.50;;;17.52;92.63
9822;BME280;4950;46.042;14.472;2023-05-24T01:34:55;97794.09;;;17.52;92.25
9822;BME280;4950;46.042;14.472;2023-05-24T01:37:22;97794.50;;;17.49;92.18
9822;BME280;4950;46.042;14.472;2023-05-24T01:39:49;97788.00;;;17.51;92.54
9822;BME280;4950;46.042;14.472;2023-05-24T01:42:23;97784.22;;;17.47;92.46
9822;BME280;4950;46.042;14.472;2023-05-24T01:45:01;97791.09;;;17.48;92.72
9822;BME280;4950;46.042;14.472;2023-05-24T01:47:38;97783.59;;;17.52;92.36
9822;BME280;4950;46.042;14.472;2023-05-24T01:50:15;97790.88;;;17.50;92.67
9822;BME280;4950;46.042;14.472;2023-05-24T01:52:43;97790.63;;;17.51;92.53
9822;BME280;4950;46.042;14.472;2023-05-24T01:55:12;97796.13;;;17.50;92.63
9822;BME280;4950;46.042;14.472;2023-05-24T01:57:42;97794.16;;;17.45;92.79
9822;BME280;4950;46.042;14.472;2023-05-24T02:00:12;97795.41;;;17.43;92.65
9822;BME280;4950;46.042;14.472;2023-05-24T02:02:40;97799.59;;;17.44;92.49
9822;BME280;4950;46.042;14.472;2023-05-24T02:05:08;97798.03;;;17.43;92.68
9822;BME280;4950;46.042;14.472;2023-05-24T02:07:34;97794.59;;;17.42;92.44
9822;BME280;4950;46.042;14.472;2023-05-24T02:10:01;97795.19;;;17.44;92.40
9822;BME280;4950;46.042;14.472;2023-05-24T02:12:28;97797.56;;;17.46;92.38
9822;BME280;4950;46.042;14.472;2023-05-24T02:14:54;97799.59;;;17.44;92.34
9822;BME280;4950;46.042;14.472;2023-05-24T02:17:22;97802.22;;;17.44;92.53
9822;BME280;4950;46.042;14.472;2023-05-24T02:19:51;97806.91;;;17.42;92.77
9822;BME280;4950;46.042;14.472;2023-05-24T02:22:17;97808.31;;;17.44;92.48
9822;BME280;4950;46.042;14.472;2023-05-24T02:24:46;97815.59;;;17.42;92.00
9822;BME280;4950;46.042;14.472;2023-05-24T02:27:13;97814.94;;;17.47;92.09
9822;BME280;4950;46.042;14.472;2023-05-24T02:29:39;97814.56;;;17.43;91.71
9822;BME280;4950;46.042;14.472;2023-05-24T02:32:07;97815.81;;;17.41;92.04
9822;BME280;4950;46.042;14.472;2023-05-24T02:34:35;97815.66;;;17.35;92.33
9822;BME280;4950;46.042;14.472;2023-05-24T02:37:02;97814.66;;;17.36;92.30
9822;BME280;4950;46.042;14.472;2023-05-24T02:39:29;97810.78;;;17.39;92.11
9822;BME280;4950;46.042;14.472;2023-05-24T02:41:55;97809.19;;;17.38;92.12
9822;BME280;4950;46.042;14.472;2023-05-24T02:44:22;97808.94;;;17.40;92.15
9822;BME280;4950;46.042;14.472;2023-05-24T02:46:48;97811.56;;;17.40;92.52
9822;BME280;4950;46.042;14.472;2023-05-24T02:49:15;97815.06;;;17.33;92.66
9822;BME280;4950;46.042;14.472;2023-05-24T02:51:43;97811.28;;;17.29;92.89
9822;BME280;4950;46.042;14.472;2023-05-24T02:54:09;97813.91;;;17.29;92.88
9822;BME280;4950;46.042;14.472;2023-05-24T02:56:36;97814.34;;;17.26;93.14
9822;BME280;4950;46.042;14.472;2023-05-24T02:59:03;97821.19;;;17.27;93.05
9822;BME280;4950;46.042;14.472;2023-05-24T03:01:31;97814.72;;;17.30;92.86
9822;BME280;4950;46.042;14.472;2023-05-24T03:03:59;97812.44;;;17.33;92.60
9822;BME280;4950;46.042;14.472;2023-05-24T03:06:26;97823.41;;;17.30;92.42
9822;BME280;4950;46.042;14.472;2023-05-24T03:08:54;97821.56;;;17.31;92.78
9822;BME280;4950;46.042;14.472;2023-05-24T03:11:21;97829.44;;;17.31;92.42
9822;BME280;4950;46.042;14.472;2023-05-24T03:13:48;97822.38;;;17.31;91.92
9822;BME280;4950;46.042;14.472;2023-05-24T03:16:14;97825.56;;;17.15;91.92
9822;BME280;4950;46.042;14.472;2023-05-24T03:18:42;97824.09;;;17.01;91.81
9822;BME280;4950;46.042;14.472;2023-05-24T03:21:08;97828.06;;;16.85;91.72
9822;BME280;4950;46.042;14.472;2023-05-24T03:23:35;97828.69;;;16.80;92.53
9822;BME280;4950;46.042;14.472;2023-05-24T03:26:03;97829.69;;;16.79;93.02
9822;BME280;4950;46.042;14.472;2023-05-24T03:28:29;97824.69;;;16.77;93.14
9822;BME280;4950;46.042;14.472;2023-05-24T03:30:58;97826.28;;;16.78;92.89
9822;BME280;4950;46.042;14.472;2023-05-24T03:33:25;97827.31;;;16.77;93.02
9822;BME280;4950;46.042;14.472;2023-05-24T03:35:51;97835.97;;;16.78;93.09
9822;BME280;4950;46.042;14.472;2023-05-24T03:38:18;97834.94;;;16.79;93.33
9822;BME280;4950;46.042;14.472;2023-05-24T03:40:44;97839.34;;;16.85;93.12
9822;BME280;4950;46.042;14.472;2023-05-24T03:43:12;97839.34;;;16.85;92.82
9822;BME280;4950;46.042;14.472;2023-05-24T03:45:39;97848.03;;;16.86;92.69
9822;BME280;4950;46.042;14.472;2023-05-24T03:48:06;97850.88;;;16.84;92.84
9822;BME280;4950;46.042;14.472;2023-05-24T03:50:32;97854.88;;;16.87;92.64
9822;BME280;4950;46.042;14.472;2023-05-24T03:52:59;97855.53;;;16.82;91.97
9822;BME280;4950;46.042;14.472;2023-05-24T03:55:26;97851.91;;;16.76;92.65
9822;BME280;4950;46.042;14.472;2023-05-24T03:57:52;97861.03;;;16.74;93.20
9822;BME280;4950;46.042;14.472;2023-05-24T04:00:20;97858.81;;;16.71;93.26
9822;BME280;4950;46.042;14.472;2023-05-24T04:02:47;97861.25;;;16.66;93.51
9822;BME280;4950;46.042;14.472;2023-05-24T04:05:14;97855.66;;;16.62;93.42
9822;BME280;4950;46.042;14.472;2023-05-24T04:07:40;97852.88;;;16.57;93.77
9822;BME280;4950;46.042;14.472;2023-05-24T04:10:08;97854.84;;;16.62;93.88
9822;BME280;4950;46.042;14.472;2023-05-24T04:12:35;97859.69;;;16.65;94.23
9822;BME280;4950;46.042;14.472;2023-05-24T04:15:02;97868.13;;;16.67;94.62
9822;BME280;4950;46.042;14.472;2023-05-24T04:17:30;97868.50;;;16.70;94.17
9822;BME280;4950;46.042;14.472;2023-05-24T04:19:59;97869.09;;;16.72;94.10
9822;BME280;4950;46.042;14.472;2023-05-24T04:22:25;97872.88;;;16.76;94.26
9822;BME280;4950;46.042;14.472;2023-05-24T04:24:52;97874.13;;;16.74;94.35
9822;BME280;4950;46.042;14.472;2023-05-24T04:27:18;97874.94;;;16.74;94.49
9822;BME280;4950;46.042;14.472;2023-05-24T04:29:46;97874.28;;;16.79;94.08
9822;BME280;4950;46.042;14.472;2023-05-24T04:32:14;97871.28;;;16.75;94.55
9822;BME280;4950;46.042;14.472;2023-05-24T04:34:43;97876.31;;;16.84;94.35
9822;BME280;4950;46.042;14.472;2023-05-24T04:37:10;97873.03;;;16.88;93.96
9822;BME280;4950;46.042;14.472;2023-05-24T04:39:37;97873.63;;;16.90;93.70
9822;BME280;4950;46.042;14.472;2023-05-24T04:42:05;97877.19;;;16.96;93.40
9822;BME280;4950;46.042;14.472;2023-05-24T04:44:32;97875.75;;;17.00;91.74
9822;BME280;4950;46.042;14.472;2023-05-24T04:46:59;97880.47;;;16.91;91.44
9822;BME280;4950;46.042;14.472;2023-05-24T04:49:27;97883.16;;;16.78;92.05
9822;BME280;4950;46.042;14.472;2023-05-24T04:51:55;97892.72;;;16.66;92.77
9822;BME280;4950;46.042;14.472;2023-05-24T04:54:21;97893.75;;;16.65;93.33
9822;BME280;4950;46.042;14.472;2023-05-24T04:56:48;97887.72;;;16.64;93.33
9822;BME280;4950;46.042;14.472;2023-05-24T04:59:15;97889.31;;;16.65;93.37
9822;BME280;4950;46.042;14.472;2023-05-24T05:01:41;97891.91;;;16.65;93.83
9822;BME280;4950;46.042;14.472;2023-05-24T05:04:08;97893.97;;;16.63;94.14
9822;BME280;4950;46.042;14.472;2023-05-24T05:06:34;97894.94;;;16.69;94.22
9822;BME280;4950;46.042;14.472;2023-05-24T05:09:05;97898.59;;;16.68;94.01
9822;BME280;4950;46.042;14.472;2023-05-24T05:11:33;97900.97;;;16.69;94.27
9822;BME280;4950;46.042;14.472;2023-05-24T05:14:00;97896.31;;;16.71;93.86
9822;BME280;4950;46.042;14.472;2023-05-24T05:16:27;97906.00;;;16.71;94.10
9822;BME280;4950;46.042;14.472;2023-05-24T05:18:53;97911.69;;;16.68;94.65
9822;BME280;4950;46.042;14.472;2023-05-24T05:21:20;97907.03;;;16.70;94.51
9822;BME280;4950;46.042;14.472;2023-05-24T05:23:47;97910.59;;;16.75;94.49
9822;BME280;4950;46.042;14.472;2023-05-24T05:26:15;97915.44;;;16.78;94.38
9822;BME280;4950;46.042;14.472;2023-05-24T05:28:41;97915.84;;;16.82;94.32
9822;BME280;4950;46.042;14.472;2023-05-24T05:31:08;97913.16;;;16.89;94.57
9822;BME280;4950;46.042;14.472;2023-05-24T05:33:34;97913.97;;;16.89;94.59
9822;BME280;4950;46.042;14.472;2023-05-24T05:36:01;97917.34;;;16.96;94.75
9822;BME280;4950;46.042;14.472;2023-05-24T05:38:27;97916.72;;;17.01;94.42
9822;BME280;4950;46.042;14.472;2023-05-24T05:40:54;97918.28;;;17.02;94.38
9822;BME280;4950;46.042;14.472;2023-05-24T05:43:22;97910.97;;;17.11;94.85
9822;BME280;4950;46.042;14.472;2023-05-24T05:45:49;97916.81;;;17.13;94.77
9822;BME280;4950;46.042;14.472;2023-05-24T05:48:15;97913.31;;;17.19;94.81
9822;BME280;4950;46.042;14.472;2023-05-24T05:50:42;97916.47;;;17.28;94.84
9822;BME280;4950;46.042;14.472;2023-05-24T05:53:09;97926.53;;;17.31;94.91
9822;BME280;4950;46.042;14.472;2023-05-24T05:55:35;97929.09;;;17.37;94.76
9822;BME280;4950;46.042;14.472;2023-05-24T05:58:02;97925.88;;;17.35;94.85
9822;BME280;4950;46.042;14.472;2023-05-24T06:00:30;97934.34;;;17.37;94.78
9822;BME280;4950;46.042;14.472;2023-05-24T06:02:56;97929.28;;;17.36;94.74
9822;BME280;4950;46.042;14.472;2023-05-24T06:05:23;97935.50;;;17.42;94.99
9822;BME280;4950;46.042;14.472;2023-05-24T06:07:49;97935.88;;;17.45;94.85
9822;BME280;4950;46.042;14.472;2023-05-24T06:10:16;97924.50;;;17.51;94.52
9822;BME280;4950;46.042;14.472;2023-05-24T06:12:43;97939.66;;;17.49;94.79
9822;BME280;4950;46.042;14.472;2023-05-24T06:15:10;97932.38;;;17.51;94.62
9822;BME280;4950;46.042;14.472;2023-05-24T06:17:38;97936.63;;;17.52;95.07
9822;BME280;4950;46.042;14.472;2023-05-24T06:20:07;97930.50;;;17.59;94.79
9822;BME280;4950;46.042;14.472;2023-05-24T06:22:35;97940.22;;;17.58;93.44
9822;BME280;4950;46.042;14.472;2023-05-24T06:25:03;97938.16;;;17.60;93.03
9822;BME280;4950;46.042;14.472;2023-05-24T06:27:29;97937.72;;;17.63;92.57
9822;BME280;4950;46.042;14.472;2023-05-24T06:29:56;97942.97;;;17.63;92.07
9822;BME280;4950;46.042;14.472;2023-05-24T06:32:23;97943.53;;;17.65;91.36
9822;BME280;4950;46.042;14.472;2023-05-24T06:34:50;97949.84;;;17.64;91.45
9822;BME280;4950;46.042;14.472;2023-05-24T06:37:17;97944.13;;;17.67;91.20
9822;BME280;4950;46.042;14.472;2023-05-24T06:39:49;97950.34;;;17.73;90.81
9822;BME280;4950;46.042;14.472;2023-05-24T06:42:16;97952.97;;;17.73;90.24
9822;BME280;4950;46.042;14.472;2023-05-24T06:44:43;97955.59;;;17.73;90.36
9822;BME280;4950;46.042;14.472;2023-05-24T06:47:09;97953.41;;;17.70;90.12
9822;BME280;4950;46.042;14.472;2023-05-24T06:49:36;97958.22;;;17.73;90.14
9822;BME280;4950;46.042;14.472;2023-05-24T06:52:04;97955.38;;;17.74;90.22
9822;BME280;4950;46.042;14.472;2023-05-24T06:54:32;97955.53;;;17.80;89.63
9822;BME280;4950;46.042;14.472;2023-05-24T06:56:59;97961.97;;;17.84;89.48
9822;BME280;4950;46.042;14.472;2023-05-24T06:59:25;97950.88;;;17.82;89.14
9822;BME280;4950;46.042;14.472;2023-05-24T07:01:52;97954.28;;;17.82;89.07
9822;BME280;4950;46.042;14.472;2023-05-24T07:04:21;97959.94;;;17.86;89.30
9822;BME280;4950;46.042;14.472;2023-05-24T07:06:48;97952.22;;;17.91;89.24
9822;BME280;4950;46.042;14.472;2023-05-24T07:09:17;97959.63;;;17.94;89.50
9822;BME280;4950;46.042;14.472;2023-05-24T07:11:44;97959.22;;;17.97;89.27
9822;BME280;4950;46.042;14.472;2023-05-24T07:14:10;97968.47;;;18.00;88.99
9822;BME280;4950;46.042;14.472;2023-05-24T07:16:37;97963.44;;;17.98;89.34
9822;BME280;4950;46.042;14.472;2023-05-24T07:19:03;97969.25;;;18.00;89.09
9822;BME280;4950;46.042;14.472;2023-05-24T07:21:30;97969.22;;;18.07;89.28
9822;BME280;4950;46.042;14.472;2023-05-24T07:23:57;97972.78;;;18.12;89.50
9822;BME280;4950;46.042;14.472;2023-05-24T07:26:25;97971.06;;;18.18;89.32
9822;BME280;4950;46.042;14.472;2023-05-24T07:28:51;97973.06;;;18.23;89.30
9822;BME280;4950;46.042;14.472;2023-05-24T07:31:18;97972.59;;;18.26;88.91
9822;BME280;4950;46.042;14.472;2023-05-24T07:33:45;97970.53;;;18.28;88.40
9822;BME280;4950;46.042;14.472;2023-05-24T07:36:12;97968.53;;;18.30;88.33
9822;BME280;4950;46.042;14.472;2023-05-24T07:38:39;97971.75;;;18.32;88.20
9822;BME280;4950;46.042;14.472;2023-05-24T07:41:06;97965.06;;;18.29;87.53
9822;BME280;4950;46.042;14.472;2023-05-24T07:43:34;97967.06;;;18.34;87.50
9822;BME280;4950;46.042;14.472;2023-05-24T07:46:01;97963.03;;;18.31;87.21
9822;BME280;4950;46.042;14.472;2023-05-24T07:48:28;97961.81;;;18.34;86.87
9822;BME280;4950;46.042;14.472;2023-05-24T07:50:54;97969.00;;;18.39;87.25
9822;BME280;4950;46.042;14.472;2023-05-24T07:53:21;97959.44;;;18.44;87.02
9822;BME280;4950;46.042;14.472;2023-05-24T07:55:48;97959.59;;;18.49;86.34
9822;BME280;4950;46.042;14.472;2023-05-24T07:58:15;97957.66;;;18.57;86.51
9822;BME280;4950;46.042;14.472;2023-05-24T08:00:42;97969.09;;;18.62;86.37
9822;BME280;4950;46.042;14.472;2023-05-24T08:03:09;97965.00;;;18.66;86.31
9822;BME280;4950;46.042;14.472;2023-05-24T08:05:38;97970.97;;;18.73;86.10
9822;BME280;4950;46.042;14.472;2023-05-24T08:08:05;97968.84;;;18.82;85.69
9822;BME280;4950;46.042;14.472;2023-05-24T08:10:32;97965.31;;;18.88;85.35
9822;BME280;4950;46.042;14.472;2023-05-24T08:12:58;97964.44;;;18.94;84.61
9822;BME280;4950;46.042;14.472;2023-05-24T08:15:25;97971.41;;;19.01;84.45
9822;BME280;4950;46.042;14.472;2023-05-24T08:17:53;97960.69;;;19.14;84.58
9822;BME280;4950;46.042;14.472;2023-05-24T08:20:19;97955.44;;;19.26;84.81
9822;BME280;4950;46.042;14.472;2023-05-24T08:22:46;97967.19;;;19.35;84.11
9822;BME280;4950;46.042;14.472;2023-05-24T08:25:13;97962.84;;;19.41;83.47
9822;BME280;4950;46.042;14.472;2023-05-24T08:27:40;97960.47;;;19.51;83.50
9822;BME280;4950;46.042;14.472;2023-05-24T08:30:07;97959.88;;;19.61;82.96
9822;BME280;4950;46.042;14.472;2023-05-24T08:32:35;97961.50;;;19.73;83.04
9822;BME280;4950;46.042;14.472;2023-05-24T08:35:04;97961.97;;;19.82;80.90
9822;BME280;4950;46.042;14.472;2023-05-24T08:37:31;97964.22;;;19.90;80.60
9822;BME280;4950;46.042;14.472;2023-05-24T08:39:58;97965.94;;;19.97;80.29
9822;BME280;4950;46.042;14.472;2023-05-24T08:42:24;97970.03;;;20.04;80.13
9822;BME280;4950;46.042;14.472;2023-05-24T08:44:58;97968.31;;;20.10;79.34
9822;BME280;4950;46.042;14.472;2023-05-24T08:47:29;97963.13;;;20.15;78.82
9822;BME280;4950;46.042;14.472;2023-05-24T08:49:56;97968.50;;;20.20;79.43
9822;BME280;4950;46.042;14.472;2023-05-24T08:52:25;97965.88;;;20.20;78.33
9822;BME280;4950;46.042;14.472;2023-05-24T08:54:53;97968.28;;;20.22;77.33
9822;BME280;4950;46.042;14.472;2023-05-24T08:57:21;97968.34;;;20.27;76.44
9822;BME280;4950;46.042;14.472;2023-05-24T08:59:48;97974.91;;;20.24;76.75
9822;BME280;4950;46.042;14.472;2023-05-24T09:02:15;97975.41;;;20.21;76.34
9822;BME280;4950;46.042;14.472;2023-05-24T09:04:43;97972.75;;;20.21;77.81
9822;BME280;4950;46.042;14.472;2023-05-24T09:07:13;97972.84;;;20.26;77.91
9822;BME280;4950;46.042;14.472;2023-05-24T09:09:44;97975.25;;;20.28;77.50
9822;BME280;4950;46.042;14.472;2023-05-24T09:12:15;97976.16;;;20.34;77.81
9822;BME280;4950;46.042;14.472;2023-05-24T09:14:44;97973.84;;;20.37;78.01
9822;BME280;4950;46.042;14.472;2023-05-24T09:17:12;97982.22;;;20.34;77.47
9822;BME280;4950;46.042;14.472;2023-05-24T09:19:43;97979.34;;;20.36;77.06
9822;BME280;4950;46.042;14.472;2023-05-24T09:22:12;97982.56;;;20.38;76.80
9822;BME280;4950;46.042;14.472;2023-05-24T09:24:43;97983.91;;;20.40;76.76
9822;BME280;4950;46.042;14.472;2023-05-24T09:27:13;97978.41;;;20.42;76.97
9822;BME280;4950;46.042;14.472;2023-05-24T09:29:40;97974.97;;;20.41;76.45
9822;BME280;4950;46.042;14.472;2023-05-24T09:32:07;97979.81;;;20.32;76.75
9822;BME280;4950;46.042;14.472;2023-05-24T09:34:37;97983.84;;;20.35;77.29
9822;BME280;4950;46.042;14.472;2023-05-24T09:37:05;97984.13;;;20.39;76.96
9822;BME280;4950;46.042;14.472;2023-05-24T09:39:32;97994.34;;;20.47;76.68
9822;BME280;4950;46.042;14.472;2023-05-24T09:42:01;97982.72;;;20.48;76.12
9822;BME280;4950;46.042;14.472;2023-05-24T09:44:28;97988.91;;;20.54;75.98
9822;BME280;4950;46.042;14.472;2023-05-24T09:47:00;97987.31;;;20.52;75.46
9822;BME280;4950;46.042;14.472;2023-05-24T09:49:28;97986.84;;;20.56;75.58
9822;BME280;4950;46.042;14.472;2023-05-24T09:51:54;97984.56;;;20.59;75.21
9822;BME280;4950;46.042;14.472;2023-05-24T09:54:22;97984.34;;;20.61;75.03
9822;BME280;4950;46.042;14.472;2023-05-24T09:56:50;97979.28;;;20.59;74.90
9822;BME280;4950;46.042;14.472;2023-05-24T09:59:19;97982.03;;;20.52;74.81
9822;BME280;4950;46.042;14.472;2023-05-24T10:01:46;97978.03;;;20.50;75.19
9822;BME280;4950;46.042;14.472;2023-05-24T10:04:18;97976.44;;;20.49;75.90
9822;BME280;4950;46.042;14.472;2023-05-24T10:06:45;97969.88;;;20.51;77.04
9822;BME280;4950;46.042;14.472;2023-05-24T10:09:13;97969.09;;;20.51;77.64
9822;BME280;4950;46.042;14.472;2023-05-24T10:11:40;97970.66;;;20.52;77.80
9822;BME280;4950;46.042;14.472;2023-05-24T10:14:08;97970.66;;;20.52;77.32
9822;BME280;4950;46.042;14.472;2023-05-24T10:16:36;97973.09;;;20.54;77.44
9822;BME280;4950;46.042;14.472;2023-05-24T10:19:04;97966.28;;;20.58;77.67
9822;BME280;4950;46.042;14.472;2023-05-24T10:21:31;97964.81;;;20.62;77.70
9822;BME280;4950;46.042;14.472;2023-05-24T10:24:02;97963.00;;;20.62;77.12
9822;BME280;4950;46.042;14.472;2023-05-24T10:26:31;97966.44;;;20.63;77.65
9822;BME280;4950;46.042;14.472;2023-05-24T10:29:02;97956.59;;;20.75;77.80
9822;BME280;4950;46.042;14.472;2023-05-24T10:31:31;97952.88;;;20.88;78.43
9822;BME280;4950;46.042;14.472;2023-05-24T10:34:02;97956.31;;;21.05;78.66
9822;BME280;4950;46.042;14.472;2023-05-24T10:36:29;97961.03;;;21.20;75.44
9822;BME280;4950;46.042;14.472;2023-05-24T10:38:56;97958.72;;;21.24;74.77
9822;BME280;4950;46.042;14.472;2023-05-24T10:41:24;97955.88;;;21.30;73.26
9822;BME280;4950;46.042;14.472;2023-05-24T10:43:52;97950.31;;;21.27;72.21
9822;BME280;4950;46.042;14.472;2023-05-24T10:46:19;97960.31;;;21.25;73.69
9822;BME280;4950;46.042;14.472;2023-05-24T10:48:58;97959.13;;;21.16;71.86
9822;BME280;4950;46.042;14.472;2023-05-24T10:51:34;97958.00;;;21.12;70.96
9822;BME280;4950;46.042;14.472;2023-05-24T10:54:12;97956.88;;;21.07;72.15
9822;BME280;4950;46.042;14.472;2023-05-24T10:56:41;97959.25;;;21.09;72.49
9822;BME280;4950;46.042;14.472;2023-05-24T10:59:08;97952.47;;;21.13;72.64
9822;BME280;4950;46.042;14.472;2023-05-24T11:01:35;97956.72;;;21.14;71.97
9822;BME280;4950;46.042;14.472;2023-05-24T11:04:06;97959.03;;;21.10;72.18
9822;BME280;4950;46.042;14.472;2023-05-24T11:06:47;97962.53;;;20.99;72.37
9822;BME280;4950;46.042;14.472;2023-05-24T11:09:15;97956.97;;;20.96;72.56
9822;BME280;4950;46.042;14.472;2023-05-24T11:11:45;97950.63;;;20.97;72.56
9822;BME280;4950;46.042;14.472;2023-05-24T11:14:13;97956.47;;;20.99;73.05
9822;BME280;4950;46.042;14.472;2023-05-24T11:16:44;97952.16;;;20.93;73.71
9822;BME280;4950;46.042;14.472;2023-05-24T11:19:13;97956.31;;;20.88;74.55
9822;BME280;4950;46.042;14.472;2023-05-24T11:21:43;97962.47;;;20.94;75.02
9822;BME280;4950;46.042;14.472;2023-05-24T11:24:11;97966.41;;;20.92;75.85
9822;BME280;4950;46.042;14.472;2023-05-24T11:26:38;97966.69;;;20.95;75.49
9822;BME280;4950;46.042;14.472;2023-05-24T11:29:06;97968.88;;;20.98;75.93
9822;BME280;4950;46.042;14.472;2023-05-24T11:31:34;97972.94;;;20.89;76.20
9822;BME280;4950;46.042;14.472;2023-05-24T11:34:04;97967.81;;;20.82;75.62
9822;BME280;4950;46.042;14.472;2023-05-24T11:36:32;97967.69;;;20.60;76.34
9822;BME280;4950;46.042;14.472;2023-05-24T11:39:00;97964.44;;;20.58;76.64
9822;BME280;4950;46.042;14.472;2023-05-24T11:41:29;97968.94;;;20.58;77.91
9822;BME280;4950;46.042;14.472;2023-05-24T11:43:55;97969.09;;;20.51;76.80
9822;BME280;4950;46.042;14.472;2023-05-24T11:46:22;97961.78;;;20.41;77.76
9822;BME280;4950;46.042;14.472;2023-05-24T11:48:55;97962.16;;;20.33;77.42
9822;BME280;4950;46.042;14.472;2023-05-24T11:51:26;97961.06;;;20.17;77.56
9822;BME280;4950;46.042;14.472;2023-05-24T11:53:53;97956.94;;;20.09;77.68
9822;BME280;4950;46.042;14.472;2023-05-24T11:56:19;97958.22;;;20.07;77.19
9822;BME280;4950;46.042;14.472;2023-05-24T11:58:49;97954.59;;;19.96;77.90
9822;BME280;4950;46.042;14.472;2023-05-24T12:01:23;97950.16;;;19.85;78.44
9822;BME280;4950;46.042;14.472;2023-05-24T12:03:50;97954.28;;;19.81;78.91
9822;BME280;4950;46.042;14.472;2023-05-24T12:06:17;97950.50;;;19.77;79.98
9822;BME280;4950;46.042;14.472;2023-05-24T12:08:44;97953.00;;;19.83;79.94
9822;BME280;4950;46.042;14.472;2023-05-24T12:11:11;97954.28;;;19.81;80.69
9822;BME280;4950;46.042;14.472;2023-05-24T12:13:39;97944.19;;;19.78;81.29
9822;BME280;4950;46.042;14.472;2023-05-24T12:16:07;97950.50;;;19.65;82.26
9822;BME280;4950;46.042;14.472;2023-05-24T12:18:33;97949.44;;;19.66;81.79
9822;BME280;4950;46.042;14.472;2023-05-24T12:21:00;97952.19;;;19.71;81.22
9822;BME280;4950;46.042;14.472;2023-05-24T12:23:27;97954.38;;;19.74;81.43
9822;BME280;4950;46.042;14.472;2023-05-24T12:25:59;97960.47;;;19.75;81.35
9822;BME280;4950;46.042;14.472;2023-05-24T12:28:26;97947.53;;;19.73;81.56
9822;BME280;4950;46.042;14.472;2023-05-24T12:30:53;97939.25;;;19.69;81.65
9822;BME280;4950;46.042;14.472;2023-05-24T12:33:22;97932.75;;;19.72;81.75
9822;BME280;4950;46.042;14.472;2023-05-24T12:35:50;97941.69;;;19.59;82.81
9822;BME280;4950;46.042;14.472;2023-05-24T12:38:18;97950.94;;;19.62;82.94
9822;BME280;4950;46.042;14.472;2023-05-24T12:40:49;97949.94;;;19.51;83.99
9822;BME280;4950;46.042;14.472;2023-05-24T12:43:18;97950.81;;;19.45;84.16
9822;BME280;4950;46.042;14.472;2023-05-24T12:45:44;97945.56;;;19.45;84.65
9822;BME280;4950;46.042;14.472;2023-05-24T12:48:11;97939.84;;;19.48;84.65
9822;BME280;4950;46.042;14.472;2023-05-24T12:50:39;97941.00;;;19.52;83.87
9822;BME280;4950;46.042;14.472;2023-05-24T12:53:06;97936.41;;;19.59;83.72
9822;BME280;4950;46.042;14.472;2023-05-24T12:55:32;97936.16;;;19.49;84.31
9822;BME280;4950;46.042;14.472;2023-05-24T12:57:59;97934.47;;;19.43;85.29
9822;BME280;4950;46.042;14.472;2023-05-24T13:00:28;97932.41;;;19.45;85.30
9822;BME280;4950;46.042;14.472;2023-05-24T13:02:55;97932.53;;;19.50;84.42
9822;BME280;4950;46.042;14.472;2023-05-24T13:05:23;97935.38;;;19.60;84.25
9822;BME280;4950;46.042;14.472;2023-05-24T13:07:54;97933.88;;;19.64;84.19
9822;BME280;4950;46.042;14.472;2023-05-24T13:10:21;97937.78;;;19.62;83.81
9822;BME280;4950;46.042;14.472;2023-05-24T13:12:48;97933.44;;;19.56;83.10